createdAt,value
2023-03-06T00:01:55.198Z,0.20
2023-03-06T00:04:22.843Z,0.25
2023-03-06T00:06:50.607Z,0.26
2023-03-06T00:09:18.278Z,0.22
2023-03-06T00:11:45.929Z,0.19
2023-03-06T00:14:13.694Z,0.16
2023-03-06T00:16:41.477Z,0.14
2023-03-06T00:19:09.224Z,0.15
2023-03-06T00:21:36.887Z,0.14
2023-03-06T00:24:04.657Z,0.19
2023-03-06T00:26:34.055Z,0.18
2023-03-06T00:29:01.710Z,0.12
2023-03-06T00:31:29.593Z,0.06
2023-03-06T00:33:57.347Z,0.04
2023-03-06T00:36:25.105Z,-0.01
2023-03-06T00:38:52.870Z,-0.02
2023-03-06T00:41:20.528Z,-0.01
2023-03-06T00:43:48.297Z,0.00
2023-03-06T00:46:16.057Z,-0.04
2023-03-06T00:48:43.716Z,-0.10
2023-03-06T00:51:13.886Z,-0.11
2023-03-06T00:53:41.822Z,-0.12
2023-03-06T00:56:09.571Z,-0.16
2023-03-06T00:58:37.948Z,-0.18
2023-03-06T01:01:05.633Z,-0.17
2023-03-06T01:03:33.375Z,-0.13
2023-03-06T01:06:01.036Z,-0.17
2023-03-06T01:08:28.898Z,-0.22
2023-03-06T01:10:56.661Z,-0.24
2023-03-06T01:13:24.325Z,-0.27
2023-03-06T01:15:51.984Z,-0.30
2023-03-06T01:18:19.747Z,-0.31
2023-03-06T01:20:47.614Z,-0.26
2023-03-06T01:23:15.275Z,-0.27
2023-03-06T01:25:42.936Z,-0.29
2023-03-06T01:28:10.699Z,-0.29
2023-03-06T01:30:38.363Z,-0.27
2023-03-06T01:33:06.023Z,-0.26
2023-03-06T01:35:33.712Z,-0.26
2023-03-06T01:38:01.552Z,-0.26
2023-03-06T01:40:29.319Z,-0.19
2023-03-06T01:42:56.980Z,-0.13
2023-03-06T01:45:24.645Z,-0.14
2023-03-06T01:47:52.304Z,-0.17
2023-03-06T01:50:19.963Z,-0.20
2023-03-06T01:52:47.628Z,-0.19
2023-03-06T01:55:15.391Z,-0.20
2023-03-06T01:57:43.163Z,-0.23
2023-03-06T02:03:13.930Z,-0.15
2023-03-06T02:05:41.783Z,-0.16
2023-03-06T02:08:09.438Z,-0.20
2023-03-06T02:10:37.069Z,-0.21
2023-03-06T02:13:04.763Z,-0.25
2023-03-06T02:15:32.428Z,-0.29
2023-03-06T02:18:00.193Z,-0.30
2023-03-06T02:20:27.952Z,-0.30
2023-03-06T02:22:55.613Z,-0.26
2023-03-06T02:25:23.276Z,-0.26
2023-03-06T02:27:51.043Z,-0.31
2023-03-06T02:30:18.706Z,-0.34
2023-03-06T02:32:46.567Z,-0.36
2023-03-06T02:35:14.229Z,-0.39
2023-03-06T02:37:41.891Z,-0.39
2023-03-06T02:40:09.551Z,-0.33
2023-03-06T02:42:37.213Z,-0.29
2023-03-06T02:45:05.185Z,-0.31
2023-03-06T02:47:32.944Z,-0.33
2023-03-06T02:50:00.609Z,-0.39
2023-03-06T02:52:28.364Z,-0.41
2023-03-06T02:54:56.029Z,-0.43
2023-03-06T02:57:23.896Z,-0.42
2023-03-06T02:59:51.673Z,-0.40
2023-03-06T03:02:19.422Z,-0.38
2023-03-06T03:04:47.172Z,-0.37
2023-03-06T03:07:15.064Z,-0.39
2023-03-06T03:09:42.824Z,-0.39
2023-03-06T03:12:10.594Z,-0.41
2023-03-06T03:14:38.341Z,-0.42
2023-03-06T03:17:06.006Z,-0.41
2023-03-06T03:19:33.769Z,-0.36
2023-03-06T03:22:01.437Z,-0.39
2023-03-06T03:24:29.430Z,-0.44
2023-03-06T03:26:57.176Z,-0.45
2023-03-06T03:29:25.148Z,-0.45
2023-03-06T03:31:53.109Z,-0.47
2023-03-06T03:34:20.974Z,-0.49
2023-03-06T03:36:48.639Z,-0.50
2023-03-06T03:39:16.400Z,-0.46
2023-03-06T03:41:44.058Z,-0.39
2023-03-06T03:44:11.839Z,-0.38
2023-03-06T03:46:39.648Z,-0.37
2023-03-06T03:49:07.454Z,-0.36
2023-03-06T03:51:35.216Z,-0.37
2023-03-06T03:54:02.983Z,-0.37
2023-03-06T03:56:30.743Z,-0.38
2023-03-06T03:58:58.407Z,-0.35
2023-03-06T04:01:26.166Z,-0.34
2023-03-06T04:03:53.938Z,-0.35
2023-03-06T04:06:21.592Z,-0.36
2023-03-06T04:08:49.356Z,-0.36
2023-03-06T04:11:17.022Z,-0.38
2023-03-06T04:13:44.677Z,-0.40
2023-03-06T04:16:12.388Z,-0.41
2023-03-06T04:18:40.205Z,-0.41
2023-03-06T04:21:07.970Z,-0.37
2023-03-06T04:23:35.733Z,-0.34
2023-03-06T04:26:03.401Z,-0.35
2023-03-06T04:28:31.158Z,-0.36
2023-03-06T04:30:58.941Z,-0.39
2023-03-06T04:33:26.796Z,-0.41
2023-03-06T04:35:54.626Z,-0.44
2023-03-06T04:38:22.425Z,-0.45
2023-03-06T04:40:50.108Z,-0.49
2023-03-06T04:43:18.058Z,-0.52
2023-03-06T04:45:45.853Z,-0.52
2023-03-06T04:48:13.590Z,-0.48
2023-03-06T04:50:41.347Z,-0.42
2023-03-06T04:53:09.229Z,-0.44
2023-03-06T04:55:36.978Z,-0.46
2023-03-06T04:58:04.639Z,-0.44
2023-03-06T05:00:32.301Z,-0.40
2023-03-06T05:03:00.096Z,-0.42
2023-03-06T05:05:28.034Z,-0.44
2023-03-06T05:07:55.793Z,-0.45
2023-03-06T05:10:23.556Z,-0.44
2023-03-06T05:12:51.206Z,-0.43
2023-03-06T05:15:18.880Z,-0.44
2023-03-06T05:17:47.773Z,-0.43
2023-03-06T05:20:15.540Z,-0.38
2023-03-06T05:22:43.238Z,-0.32
2023-03-06T05:25:11.063Z,-0.27
2023-03-06T05:27:38.821Z,-0.26
2023-03-06T05:30:06.490Z,-0.29
2023-03-06T05:32:35.672Z,-0.29
2023-03-06T05:35:03.859Z,-0.28
2023-03-06T05:37:31.723Z,-0.25
2023-03-06T05:39:59.432Z,-0.24
2023-03-06T05:42:28.841Z,-0.25
2023-03-06T05:44:56.670Z,-0.26
2023-03-06T05:47:24.420Z,-0.28
2023-03-06T05:49:52.184Z,-0.26
2023-03-06T05:52:19.949Z,-0.25
2023-03-06T05:54:47.815Z,-0.25
2023-03-06T05:57:15.433Z,-0.26
2023-03-06T05:59:43.305Z,-0.27
2023-03-06T06:02:11.149Z,-0.21
2023-03-06T06:04:38.868Z,-0.15
2023-03-06T06:07:06.528Z,-0.12
2023-03-06T06:09:34.291Z,-0.11
2023-03-06T06:12:01.962Z,-0.11
2023-03-06T06:14:29.717Z,-0.12
2023-03-06T06:16:57.483Z,-0.13
2023-03-06T06:19:25.145Z,-0.11
2023-03-06T06:21:53.014Z,-0.08
2023-03-06T06:24:20.802Z,-0.02
2023-03-06T06:26:48.541Z,0.12
2023-03-06T06:29:16.200Z,0.18
2023-03-06T06:31:43.993Z,0.18
2023-03-06T06:34:11.726Z,0.20
2023-03-06T06:36:39.387Z,0.20
2023-03-06T06:39:07.158Z,0.19
2023-03-06T06:44:22.651Z,0.27
2023-03-06T06:47:21.173Z,0.28
2023-03-06T06:49:39.688Z,0.33
2023-03-06T06:52:07.455Z,0.45
2023-03-06T06:54:35.213Z,0.53
2023-03-06T06:57:02.888Z,0.59
2023-03-06T06:59:30.633Z,0.63
2023-03-06T07:01:58.396Z,0.68
2023-03-06T07:04:26.062Z,0.75
2023-03-06T07:06:53.721Z,0.81
2023-03-06T07:09:22.609Z,0.84
2023-03-06T07:11:50.404Z,0.87
2023-03-06T07:14:18.145Z,0.93
2023-03-06T07:16:45.818Z,1.02
2023-03-06T07:19:13.565Z,1.04
2023-03-06T07:21:41.328Z,1.07
2023-03-06T07:24:09.092Z,1.10
2023-03-06T07:26:36.963Z,1.15
2023-03-06T07:29:04.722Z,1.20
2023-03-06T07:31:32.454Z,1.21
2023-03-06T07:34:01.876Z,1.20
2023-03-06T07:36:30.882Z,1.15
2023-03-06T07:38:58.546Z,1.16
2023-03-06T07:41:26.206Z,1.24
2023-03-06T07:43:53.874Z,1.30
2023-03-06T07:46:21.580Z,1.32
2023-03-06T07:48:49.302Z,1.37
2023-03-06T07:51:17.071Z,1.38
2023-03-06T07:53:45.035Z,1.34
2023-03-06T07:56:12.693Z,1.32
2023-03-06T07:58:40.457Z,1.32
2023-03-06T08:01:08.219Z,1.33
2023-03-06T08:03:35.985Z,1.34
2023-03-06T08:06:03.856Z,1.42
2023-03-06T08:08:31.613Z,1.43
2023-03-06T08:10:59.277Z,1.44
2023-03-06T08:13:26.934Z,1.44
2023-03-06T08:15:54.910Z,1.46
2023-03-06T08:18:22.564Z,1.47
2023-03-06T08:20:50.242Z,1.44
2023-03-06T08:23:18.193Z,1.42
2023-03-06T08:25:45.955Z,1.41
2023-03-06T08:28:13.617Z,1.39
2023-03-06T08:30:41.688Z,1.39
2023-03-06T08:33:09.350Z,1.49
2023-03-06T08:35:37.074Z,1.54
2023-03-06T08:38:04.880Z,1.54
2023-03-06T08:40:32.640Z,1.52
2023-03-06T08:43:00.408Z,1.51
2023-03-06T08:45:28.088Z,1.49
2023-03-06T08:47:55.829Z,1.47
2023-03-06T08:50:23.601Z,1.48
2023-03-06T08:52:51.358Z,1.51
2023-03-06T08:55:19.017Z,1.62
2023-03-06T08:57:46.782Z,1.70
2023-03-06T09:00:14.598Z,1.75
2023-03-06T09:02:42.459Z,1.80
2023-03-06T09:05:10.279Z,1.86
2023-03-06T09:07:38.144Z,1.91
2023-03-06T09:10:05.908Z,1.95
2023-03-06T09:12:47.255Z,2.04
2023-03-06T09:15:17.103Z,2.17
2023-03-06T09:17:45.052Z,2.23
2023-03-06T09:20:12.954Z,2.29
2023-03-06T09:22:42.654Z,2.36
2023-03-06T09:25:11.232Z,2.36
2023-03-06T09:27:38.999Z,2.35
2023-03-06T09:30:06.663Z,2.37
2023-03-06T09:32:34.485Z,2.47
2023-03-06T09:35:02.197Z,2.51
2023-03-06T09:37:29.853Z,2.53
2023-03-06T09:39:58.035Z,2.56
2023-03-06T09:42:25.686Z,2.59
2023-03-06T09:44:53.517Z,2.64
2023-03-06T09:47:21.314Z,2.71
2023-03-06T09:49:48.982Z,2.78
2023-03-06T09:52:17.777Z,2.86
2023-03-06T09:54:46.342Z,2.90
2023-03-06T09:57:14.127Z,2.96
2023-03-06T09:59:41.874Z,3.03
2023-03-06T10:02:09.801Z,3.09
2023-03-06T10:04:37.632Z,3.15
2023-03-06T10:07:05.366Z,3.29
2023-03-06T10:09:33.035Z,3.45
2023-03-06T10:12:00.701Z,3.60
2023-03-06T10:14:28.685Z,3.74
2023-03-06T10:16:57.248Z,3.81
2023-03-06T10:19:25.008Z,3.85
2023-03-06T10:21:52.782Z,3.86
2023-03-06T10:24:20.612Z,3.89
2023-03-06T10:26:48.422Z,4.02
2023-03-06T10:29:16.275Z,4.14
2023-03-06T10:31:44.961Z,4.24
2023-03-06T10:34:12.665Z,4.34
2023-03-06T10:36:40.489Z,4.46
2023-03-06T10:39:08.249Z,4.64
2023-03-06T10:41:36.856Z,4.76
2023-03-06T10:44:04.622Z,4.73
2023-03-06T10:46:32.422Z,4.72
2023-03-06T10:49:00.167Z,4.75
2023-03-06T10:51:27.891Z,4.78
2023-03-06T10:53:55.654Z,4.77
2023-03-06T10:56:23.418Z,4.73
2023-03-06T10:58:51.082Z,4.68
2023-03-06T11:01:18.886Z,4.69
2023-03-06T11:03:46.711Z,4.77
2023-03-06T11:06:14.576Z,4.87
2023-03-06T11:08:42.246Z,5.07
2023-03-06T11:11:09.890Z,5.20
2023-03-06T11:13:37.534Z,5.27
2023-03-06T11:16:05.358Z,5.35
2023-03-06T11:18:35.442Z,5.34
2023-03-06T11:21:03.494Z,5.44
2023-03-06T11:23:31.173Z,5.61
2023-03-06T11:25:58.938Z,5.66
2023-03-06T11:28:26.596Z,5.53
2023-03-06T11:30:54.260Z,5.52
2023-03-06T11:33:21.917Z,5.62
2023-03-06T11:35:49.538Z,5.77
2023-03-06T11:38:17.242Z,5.80
2023-03-06T11:40:44.902Z,5.78
2023-03-06T11:43:12.564Z,5.70
2023-03-06T11:45:40.226Z,5.56
2023-03-06T11:48:07.887Z,5.44
2023-03-06T11:50:35.531Z,5.34
2023-03-06T11:53:03.229Z,5.32
2023-03-06T11:55:30.973Z,5.33
2023-03-06T11:57:58.739Z,5.35
2023-03-06T12:00:26.401Z,5.39
2023-03-06T12:02:54.064Z,5.36
2023-03-06T12:05:22.809Z,5.28
2023-03-06T12:07:50.617Z,5.22
2023-03-06T12:10:18.388Z,5.15
2023-03-06T12:12:46.145Z,5.10
2023-03-06T12:15:13.809Z,5.11
2023-03-06T12:17:41.465Z,5.23
2023-03-06T12:20:10.560Z,5.34
2023-03-06T12:22:38.237Z,5.36
2023-03-06T12:25:05.995Z,5.37
2023-03-06T12:27:33.751Z,5.37
2023-03-06T12:30:01.761Z,5.35
2023-03-06T12:32:29.917Z,5.39
2023-03-06T12:34:57.554Z,5.50
2023-03-06T12:37:25.320Z,5.52
2023-03-06T12:39:52.981Z,5.49
2023-03-06T12:42:23.574Z,5.46
2023-03-06T12:44:51.498Z,5.46
2023-03-06T12:47:19.782Z,5.44
2023-03-06T12:49:48.208Z,5.42
2023-03-06T12:52:18.708Z,5.41
2023-03-06T12:54:49.193Z,5.40
2023-03-06T12:57:16.954Z,5.38
2023-03-06T12:59:44.749Z,5.36
2023-03-06T13:02:12.499Z,5.35
2023-03-06T13:04:40.253Z,5.33
2023-03-06T13:07:08.012Z,5.32
2023-03-06T13:09:35.631Z,5.33
2023-03-06T13:12:03.335Z,5.34
2023-03-06T13:14:31.032Z,5.35
2023-03-06T13:16:58.832Z,5.34
2023-03-06T13:19:26.644Z,5.34
2023-03-06T13:21:54.400Z,5.33
2023-03-06T13:24:22.484Z,5.32
2023-03-06T13:26:50.231Z,5.31
2023-03-06T13:29:17.885Z,5.29
2023-03-06T13:31:45.585Z,5.27
2023-03-06T13:34:13.317Z,5.25
2023-03-06T13:36:40.986Z,5.24
2023-03-06T13:39:08.840Z,5.23
2023-03-06T13:41:37.824Z,5.21
2023-03-06T13:44:05.612Z,5.21
2023-03-06T13:46:35.388Z,5.19
2023-03-06T13:49:03.277Z,5.18
2023-03-06T13:51:30.935Z,5.17
2023-03-06T13:53:58.595Z,5.14
2023-03-06T13:56:26.263Z,5.13
2023-03-06T13:58:54.026Z,5.14
2023-03-06T14:01:21.725Z,5.13
2023-03-06T14:03:49.630Z,5.12
2023-03-06T14:06:17.310Z,5.13
2023-03-06T14:08:44.971Z,5.12
2023-03-06T14:11:12.631Z,5.12
2023-03-06T14:13:47.105Z,5.11
2023-03-06T14:16:15.522Z,5.11
2023-03-06T14:18:43.295Z,5.12
2023-03-06T14:21:13.554Z,5.12
2023-03-06T14:23:45.273Z,5.12
2023-03-06T14:26:15.912Z,5.12
2023-03-06T14:28:43.874Z,5.13
2023-03-06T14:31:11.554Z,5.14
2023-03-06T14:33:39.209Z,5.16
2023-03-06T14:36:10.139Z,5.17
2023-03-06T14:38:37.806Z,5.18
2023-03-06T14:41:05.463Z,5.17
2023-03-06T14:43:33.332Z,5.18
2023-03-06T14:46:01.092Z,5.17
2023-03-06T14:48:28.859Z,5.18
2023-03-06T14:50:56.659Z,5.16
2023-03-06T14:53:24.491Z,5.15
2023-03-06T14:55:53.388Z,5.15
2023-03-06T14:58:21.039Z,5.12
2023-03-06T15:00:49.735Z,5.11
2023-03-06T15:03:18.020Z,5.08
2023-03-06T15:05:45.778Z,5.07
2023-03-06T15:08:13.426Z,5.06
2023-03-06T15:10:43.455Z,5.03
2023-03-06T15:13:11.626Z,4.98
2023-03-06T15:15:39.379Z,4.92
2023-03-06T15:18:07.042Z,4.89
2023-03-06T15:20:34.807Z,4.84
2023-03-06T15:23:02.669Z,4.78
2023-03-06T15:25:30.460Z,4.72
2023-03-06T15:27:58.299Z,4.64
2023-03-06T15:30:26.070Z,4.55
2023-03-06T15:32:53.828Z,4.45
2023-03-06T15:35:21.520Z,4.38
2023-03-06T15:37:49.252Z,4.29
2023-03-06T15:40:16.883Z,4.20
2023-03-06T15:42:44.591Z,4.13
2023-03-06T15:45:12.245Z,4.07
2023-03-06T15:47:39.920Z,3.94
2023-03-06T15:50:07.564Z,3.83
2023-03-06T15:52:35.231Z,3.77
2023-03-06T15:55:03.002Z,3.75
2023-03-06T15:57:30.682Z,3.66
2023-03-06T15:59:58.421Z,3.58
2023-03-06T16:02:26.218Z,3.57
2023-03-06T16:04:54.073Z,3.55
2023-03-06T16:07:21.915Z,3.49
2023-03-06T16:09:49.690Z,3.42
2023-03-06T16:12:17.754Z,3.43
2023-03-06T16:14:45.510Z,3.50
2023-03-06T16:17:13.179Z,3.53
2023-03-06T16:19:40.832Z,3.54
2023-03-06T16:22:08.805Z,3.56
2023-03-06T16:24:37.383Z,3.61
2023-03-06T16:27:05.247Z,3.64
2023-03-06T16:29:33.013Z,3.62
2023-03-06T16:32:02.040Z,3.60
2023-03-06T16:34:29.973Z,3.56
2023-03-06T16:36:57.737Z,3.55
2023-03-06T16:39:25.506Z,3.54
2023-03-06T16:41:53.371Z,3.49
2023-03-06T16:44:21.132Z,3.38
2023-03-06T16:46:48.915Z,3.24
2023-03-06T16:49:17.091Z,3.16
2023-03-06T16:51:45.353Z,3.15
2023-03-06T16:54:13.114Z,3.14
2023-03-06T16:56:40.770Z,3.11
2023-03-06T16:59:08.534Z,3.10
2023-03-06T17:01:36.377Z,3.09
2023-03-06T17:04:04.168Z,3.12
2023-03-06T17:06:31.838Z,3.15
2023-03-06T17:09:00.330Z,3.16
2023-03-06T17:11:27.953Z,3.15
2023-03-06T17:13:55.635Z,3.17
2023-03-06T17:16:23.398Z,3.27
2023-03-06T17:18:51.168Z,3.32
2023-03-06T17:21:19.262Z,3.24
2023-03-06T17:23:47.097Z,3.22
2023-03-06T17:26:14.860Z,3.24
2023-03-06T17:28:42.626Z,3.21
2023-03-06T17:31:10.601Z,3.19
2023-03-06T17:33:38.256Z,3.13
2023-03-06T17:36:05.887Z,3.10
2023-03-06T17:38:33.576Z,3.14
2023-03-06T17:41:01.243Z,3.20
2023-03-06T17:43:29.006Z,3.19
2023-03-06T17:45:56.665Z,3.18
2023-03-06T17:48:24.326Z,3.19
2023-03-06T17:50:51.988Z,3.19
2023-03-06T17:53:19.756Z,3.20
2023-03-06T17:55:47.535Z,3.18
2023-03-06T17:58:15.152Z,3.12
2023-03-06T18:00:42.939Z,3.05
2023-03-06T18:03:10.609Z,3.04
2023-03-06T18:05:39.006Z,3.08
2023-03-06T18:08:08.482Z,3.04
2023-03-06T18:10:36.249Z,3.01
2023-03-06T18:13:04.424Z,3.02
2023-03-06T18:15:32.101Z,2.96
2023-03-06T18:17:59.848Z,2.90
2023-03-06T18:20:27.716Z,2.91
2023-03-06T18:22:55.477Z,2.91
2023-03-06T18:25:23.243Z,2.93
2023-03-06T18:27:50.903Z,2.97
2023-03-06T18:30:18.667Z,2.99
2023-03-06T18:32:46.379Z,3.02
2023-03-06T18:35:14.015Z,3.01
2023-03-06T18:37:41.653Z,3.02
2023-03-06T18:40:09.414Z,3.03
2023-03-06T18:42:37.186Z,3.03
2023-03-06T18:45:04.843Z,3.01
2023-03-06T18:47:33.940Z,2.99
2023-03-06T18:50:02.928Z,2.98
2023-03-06T18:52:30.594Z,3.01
2023-03-06T18:54:58.260Z,3.02
2023-03-06T18:57:26.039Z,3.02
2023-03-06T18:59:55.454Z,3.02
2023-03-06T19:02:23.184Z,3.02
2023-03-06T19:04:50.949Z,3.01
2023-03-06T19:07:18.613Z,3.01
2023-03-06T19:09:46.376Z,3.00
2023-03-06T19:12:14.148Z,3.01
2023-03-06T19:14:41.905Z,3.07
2023-03-06T19:17:09.567Z,3.10
2023-03-06T19:19:37.176Z,3.09
2023-03-06T19:22:04.897Z,3.08
2023-03-06T19:24:32.656Z,3.08
2023-03-06T19:27:00.427Z,3.09
2023-03-06T19:29:28.701Z,3.08
2023-03-06T19:31:57.524Z,3.07
2023-03-06T19:34:25.352Z,3.00
2023-03-06T19:36:53.331Z,2.95
2023-03-06T19:39:20.983Z,2.87
2023-03-06T19:41:48.849Z,2.82
2023-03-06T19:44:16.630Z,2.83
2023-03-06T19:46:44.378Z,2.83
2023-03-06T19:49:13.883Z,2.82
2023-03-06T19:51:41.655Z,2.81
2023-03-06T19:54:09.307Z,2.80
2023-03-06T19:56:37.073Z,2.81
2023-03-06T19:59:04.734Z,2.82
2023-03-06T20:01:34.448Z,2.81
2023-03-06T20:04:03.422Z,2.80
2023-03-06T20:06:31.615Z,2.78
2023-03-06T20:08:59.382Z,2.77
2023-03-06T20:11:27.152Z,2.77
2023-03-06T20:13:54.899Z,2.78
2023-03-06T20:16:22.659Z,2.84
2023-03-06T20:18:50.421Z,2.86
2023-03-06T20:21:18.082Z,2.84
2023-03-06T20:23:45.739Z,2.84
2023-03-06T20:26:13.716Z,2.84
2023-03-06T20:28:41.473Z,2.82
2023-03-06T20:31:09.253Z,2.79
2023-03-06T20:33:37.000Z,2.76
2023-03-06T20:36:04.683Z,2.72
2023-03-06T20:38:32.423Z,2.68
2023-03-06T20:41:00.105Z,2.65
2023-03-06T20:43:27.746Z,2.66
2023-03-06T20:45:55.410Z,2.65
2023-03-06T20:48:23.073Z,2.62
2023-03-06T20:50:50.735Z,2.64
2023-03-06T20:53:18.400Z,2.60
2023-03-06T20:55:48.486Z,2.58
2023-03-06T20:58:17.715Z,2.56
2023-03-06T21:00:45.378Z,2.51
2023-03-06T21:03:13.062Z,2.45
2023-03-06T21:05:40.817Z,2.43
2023-03-06T21:08:08.462Z,2.42
2023-03-06T21:10:36.331Z,2.44
2023-03-06T21:13:03.981Z,2.49
2023-03-06T21:15:31.757Z,2.51
2023-03-06T21:17:59.417Z,2.49
2023-03-06T21:20:27.183Z,2.47
2023-03-06T21:22:56.484Z,2.46
2023-03-06T21:25:24.247Z,2.41
2023-03-06T21:27:51.949Z,2.37
2023-03-06T21:30:19.674Z,2.34
2023-03-06T21:32:47.335Z,2.31
2023-03-06T21:35:15.100Z,2.28
2023-03-06T21:37:42.771Z,2.24
2023-03-06T21:40:10.525Z,2.21
2023-03-06T21:42:38.290Z,2.23
2023-03-06T21:45:05.992Z,2.30
2023-03-06T21:47:38.726Z,2.34
2023-03-06T21:50:06.603Z,2.34
2023-03-06T21:52:34.369Z,2.33
2023-03-06T21:55:02.126Z,2.34
2023-03-06T21:57:29.796Z,2.32
2023-03-06T21:59:57.558Z,2.27
2023-03-06T22:02:25.214Z,2.25
2023-03-06T22:04:53.596Z,2.25
2023-03-06T22:07:21.458Z,2.22
2023-03-06T22:09:49.223Z,2.21
2023-03-06T22:12:16.889Z,2.26
2023-03-06T22:14:44.651Z,2.26
2023-03-06T22:17:12.411Z,2.26
2023-03-06T22:19:40.072Z,2.27
2023-03-06T22:22:10.392Z,2.27
2023-03-06T22:24:38.471Z,2.27
2023-03-06T22:27:06.231Z,2.26
2023-03-06T22:29:33.891Z,2.25
2023-03-06T22:32:01.689Z,2.23
2023-03-06T22:34:29.624Z,2.21
2023-03-06T22:36:57.385Z,2.18
2023-03-06T22:39:25.149Z,2.17
2023-03-06T22:41:52.914Z,2.21
2023-03-06T22:44:20.680Z,2.20
2023-03-06T22:46:48.645Z,2.18
2023-03-06T22:49:17.228Z,2.18
2023-03-06T22:51:44.892Z,2.15
2023-03-06T22:54:12.651Z,2.12
2023-03-06T22:56:40.410Z,2.06
2023-03-06T22:59:08.025Z,1.99
2023-03-06T23:01:35.808Z,1.96
2023-03-06T23:04:03.789Z,1.91
2023-03-06T23:06:31.780Z,1.86
2023-03-06T23:08:59.752Z,1.83
2023-03-06T23:11:28.332Z,1.81
2023-03-06T23:13:55.996Z,1.86
2023-03-06T23:16:23.668Z,1.86
2023-03-06T23:18:51.423Z,1.81
2023-03-06T23:21:19.186Z,1.79
2023-03-06T23:23:46.952Z,1.75
2023-03-06T23:26:14.613Z,1.71
2023-03-06T23:28:42.274Z,1.71
2023-03-06T23:31:09.994Z,1.69
2023-03-06T23:33:39.028Z,1.69
2023-03-06T23:36:06.899Z,1.64
2023-03-06T23:38:34.558Z,1.60
2023-03-06T23:41:02.323Z,1.57
2023-03-06T23:43:30.087Z,1.59
2023-03-06T23:45:57.792Z,1.58
2023-03-06T23:48:25.616Z,1.55
2023-03-06T23:50:53.284Z,1.54
2023-03-06T23:53:21.041Z,1.53
2023-03-06T23:55:49.229Z,1.49
2023-03-06T23:58:17.020Z,1.46
